sensor_id;sensor_type;location;lat;lon;timestamp;temperature;humidity
22130;DHT22;11231;50.746;4.272;2023-08-30T00:00:44;14.30;99.90
22130;DHT22;11231;50.746;4.272;2023-08-30T00:03:11;14.20;99.90
22130;DHT22;11231;50.746;4.272;2023-08-30T00:05:41;14.10;99.90
22130;DHT22;11231;50.746;4.272;2023-08-30T00:08:07;14.20;99.90
22130;DHT22;11231;50.746;4.272;2023-08-30T00:10:33;14.30;99.90
22130;DHT22;11231;50.746;4.272;2023-08-30T00:12:59;14.30;99.90
22130;DHT22;11231;50.746;4.272;2023-08-30T00:15:25;14.30;99.90
22130;DHT22;11231;50.746;4.272;2023-08-30T00:17:51;14.30;99.90
22130;DHT22;11231;50.746;4.272;2023-08-30T00:20:20;14.30;99.90
22130;DHT22;11231;50.746;4.272;2023-08-30T00:22:47;14.20;99.90
22130;DHT22;11231;50.746;4.272;2023-08-30T00:25:16;14.20;99.90
22130;DHT22;11231;50.746;4.272;2023-08-30T00:27:42;14.10;99.90
22130;DHT22;11231;50.746;4.272;2023-08-30T00:30:08;14.00;99.90
22130;DHT22;11231;50.746;4.272;2023-08-30T00:32:35;13.90;99.90
22130;DHT22;11231;50.746;4.272;2023-08-30T00:35:01;13.80;99.90
22130;DHT22;11231;50.746;4.272;2023-08-30T00:37:27;13.80;99.90
22130;DHT22;11231;50.746;4.272;2023-08-30T00:39:52;13.70;99.90
22130;DHT22;11231;50.746;4.272;2023-08-30T00:42:19;13.70;99.90
22130;DHT22;11231;50.746;4.272;2023-08-30T00:44:45;13.90;99.90
22130;DHT22;11231;50.746;4.272;2023-08-30T00:47:10;14.10;99.90
22130;DHT22;11231;50.746;4.272;2023-08-30T00:49:37;14.10;99.90
22130;DHT22;11231;50.746;4.272;2023-08-30T00:52:07;14.20;99.90
22130;DHT22;11231;50.746;4.272;2023-08-30T00:54:33;14.30;99.90
22130;DHT22;11231;50.746;4.272;2023-08-30T00:57:00;14.30;99.90
22130;DHT22;11231;50.746;4.272;2023-08-30T00:59:28;14.30;99.90
22130;DHT22;11231;50.746;4.272;2023-08-30T01:01:55;14.30;99.90
22130;DHT22;11231;50.746;4.272;2023-08-30T01:04:21;14.30;99.90
22130;DHT22;11231;50.746;4.272;2023-08-30T01:06:48;14.40;99.90
22130;DHT22;11231;50.746;4.272;2023-08-30T01:09:15;14.50;99.90
22130;DHT22;11231;50.746;4.272;2023-08-30T01:11:50;14.60;99.90
22130;DHT22;11231;50.746;4.272;2023-08-30T01:14:22;14.60;99.90
22130;DHT22;11231;50.746;4.272;2023-08-30T01:16:51;14.70;99.90
22130;DHT22;11231;50.746;4.272;2023-08-30T01:19:42;14.60;99.90
22130;DHT22;11231;50.746;4.272;2023-08-30T01:25:12;14.40;99.90
22130;DHT22;11231;50.746;4.272;2023-08-30T01:27:41;14.40;99.90
22130;DHT22;11231;50.746;4.272;2023-08-30T01:30:09;14.40;99.90
22130;DHT22;11231;50.746;4.272;2023-08-30T01:32:37;14.40;99.90
22130;DHT22;11231;50.746;4.272;2023-08-30T01:35:17;14.20;99.90
22130;DHT22;11231;50.746;4.272;2023-08-30T01:37:46;14.20;99.90
22130;DHT22;11231;50.746;4.272;2023-08-30T01:40:13;14.10;99.90
22130;DHT22;11231;50.746;4.272;2023-08-30T01:42:42;14.00;99.90
22130;DHT22;11231;50.746;4.272;2023-08-30T01:45:11;13.90;99.90
22130;DHT22;11231;50.746;4.272;2023-08-30T01:47:41;13.80;99.90
22130;DHT22;11231;50.746;4.272;2023-08-30T01:50:08;13.80;99.90
22130;DHT22;11231;50.746;4.272;2023-08-30T01:52:35;13.80;99.90
22130;DHT22;11231;50.746;4.272;2023-08-30T01:55:02;13.70;99.90
22130;DHT22;11231;50.746;4.272;2023-08-30T01:57:30;13.80;99.90
22130;DHT22;11231;50.746;4.272;2023-08-30T01:59:56;13.80;99.90
22130;DHT22;11231;50.746;4.272;2023-08-30T02:02:21;13.90;99.90
22130;DHT22;11231;50.746;4.272;2023-08-30T02:04:47;13.90;99.90
22130;DHT22;11231;50.746;4.272;2023-08-30T02:07:33;13.80;99.90
22130;DHT22;11231;50.746;4.272;2023-08-30T02:10:05;13.80;99.90
22130;DHT22;11231;50.746;4.272;2023-08-30T02:12:47;13.80;99.90
22130;DHT22;11231;50.746;4.272;2023-08-30T02:15:13;13.80;99.90
22130;DHT22;11231;50.746;4.272;2023-08-30T02:17:40;13.80;99.90
22130;DHT22;11231;50.746;4.272;2023-08-30T02:20:07;13.80;99.90
22130;DHT22;11231;50.746;4.272;2023-08-30T02:22:33;13.80;99.90
22130;DHT22;11231;50.746;4.272;2023-08-30T02:24:59;13.80;99.90
22130;DHT22;11231;50.746;4.272;2023-08-30T02:27:31;13.90;99.90
22130;DHT22;11231;50.746;4.272;2023-08-30T02:29:56;13.90;99.90
22130;DHT22;11231;50.746;4.272;2023-08-30T02:32:24;14.00;99.90
22130;DHT22;11231;50.746;4.272;2023-08-30T02:34:51;14.00;99.90
22130;DHT22;11231;50.746;4.272;2023-08-30T02:37:19;14.10;99.90
22130;DHT22;11231;50.746;4.272;2023-08-30T02:39:45;14.10;99.90
22130;DHT22;11231;50.746;4.272;2023-08-30T02:42:11;14.10;99.90
22130;DHT22;11231;50.746;4.272;2023-08-30T02:44:37;14.10;99.90
22130;DHT22;11231;50.746;4.272;2023-08-30T02:47:03;14.20;99.90
22130;DHT22;11231;50.746;4.272;2023-08-30T02:49:28;14.30;99.90
22130;DHT22;11231;50.746;4.272;2023-08-30T02:51:54;14.30;99.90
22130;DHT22;11231;50.746;4.272;2023-08-30T02:54:20;14.40;99.90
22130;DHT22;11231;50.746;4.272;2023-08-30T02:56:48;14.60;99.90
22130;DHT22;11231;50.746;4.272;2023-08-30T02:59:14;14.70;99.90
22130;DHT22;11231;50.746;4.272;2023-08-30T03:01:40;14.80;99.90
22130;DHT22;11231;50.746;4.272;2023-08-30T03:04:07;14.90;99.90
22130;DHT22;11231;50.746;4.272;2023-08-30T03:06:34;15.00;99.90
22130;DHT22;11231;50.746;4.272;2023-08-30T03:09:00;15.00;99.90
22130;DHT22;11231;50.746;4.272;2023-08-30T03:11:26;15.10;99.90
22130;DHT22;11231;50.746;4.272;2023-08-30T03:13:55;15.20;99.90
22130;DHT22;11231;50.746;4.272;2023-08-30T03:16:21;15.20;99.90
22130;DHT22;11231;50.746;4.272;2023-08-30T03:18:47;15.20;99.90
22130;DHT22;11231;50.746;4.272;2023-08-30T03:21:13;15.30;99.90
22130;DHT22;11231;50.746;4.272;2023-08-30T03:23:40;15.40;99.90
22130;DHT22;11231;50.746;4.272;2023-08-30T03:26:12;15.50;99.90
22130;DHT22;11231;50.746;4.272;2023-08-30T03:28:39;15.50;99.90
22130;DHT22;11231;50.746;4.272;2023-08-30T03:31:18;15.60;99.90
22130;DHT22;11231;50.746;4.272;2023-08-30T03:33:45;15.60;99.90
22130;DHT22;11231;50.746;4.272;2023-08-30T03:36:14;15.60;99.90
22130;DHT22;11231;50.746;4.272;2023-08-30T03:38:41;15.50;99.90
22130;DHT22;11231;50.746;4.272;2023-08-30T03:41:07;15.60;99.90
22130;DHT22;11231;50.746;4.272;2023-08-30T03:43:33;15.60;99.90
22130;DHT22;11231;50.746;4.272;2023-08-30T03:46:00;15.50;99.90
22130;DHT22;11231;50.746;4.272;2023-08-30T03:48:27;15.50;99.90
22130;DHT22;11231;50.746;4.272;2023-08-30T03:50:54;15.60;99.90
22130;DHT22;11231;50.746;4.272;2023-08-30T03:53:20;15.60;99.90
22130;DHT22;11231;50.746;4.272;2023-08-30T03:55:46;15.60;99.90
22130;DHT22;11231;50.746;4.272;2023-08-30T03:58:12;15.70;99.90
22130;DHT22;11231;50.746;4.272;2023-08-30T04:00:38;15.70;99.90
22130;DHT22;11231;50.746;4.272;2023-08-30T04:03:08;15.60;99.90
22130;DHT22;11231;50.746;4.272;2023-08-30T04:05:37;15.70;99.90
22130;DHT22;11231;50.746;4.272;2023-08-30T04:08:04;15.60;99.90
22130;DHT22;11231;50.746;4.272;2023-08-30T04:10:40;15.60;99.90
22130;DHT22;11231;50.746;4.272;2023-08-30T04:13:07;15.50;99.90
22130;DHT22;11231;50.746;4.272;2023-08-30T04:15:38;15.50;99.90
22130;DHT22;11231;50.746;4.272;2023-08-30T04:18:05;15.60;99.90
22130;DHT22;11231;50.746;4.272;2023-08-30T04:20:32;15.70;99.90
22130;DHT22;11231;50.746;4.272;2023-08-30T04:22:59;15.70;99.90
22130;DHT22;11231;50.746;4.272;2023-08-30T04:25:28;15.70;99.90
22130;DHT22;11231;50.746;4.272;2023-08-30T04:27:54;15.80;99.90
22130;DHT22;11231;50.746;4.272;2023-08-30T04:30:22;15.80;99.90
22130;DHT22;11231;50.746;4.272;2023-08-30T04:32:48;15.80;99.90
22130;DHT22;11231;50.746;4.272;2023-08-30T04:35:14;15.80;99.90
22130;DHT22;11231;50.746;4.272;2023-08-30T04:37:41;15.70;99.90
22130;DHT22;11231;50.746;4.272;2023-08-30T04:40:08;15.50;99.90
22130;DHT22;11231;50.746;4.272;2023-08-30T04:42:37;15.50;99.90
22130;DHT22;11231;50.746;4.272;2023-08-30T04:45:06;15.50;99.90
22130;DHT22;11231;50.746;4.272;2023-08-30T04:47:32;15.50;99.90
22130;DHT22;11231;50.746;4.272;2023-08-30T04:50:00;15.40;99.90
22130;DHT22;11231;50.746;4.272;2023-08-30T04:52:26;15.40;99.90
22130;DHT22;11231;50.746;4.272;2023-08-30T04:54:54;15.30;99.90
22130;DHT22;11231;50.746;4.272;2023-08-30T04:57:22;15.20;99.90
22130;DHT22;11231;50.746;4.272;2023-08-30T04:59:48;15.10;99.90
22130;DHT22;11231;50.746;4.272;2023-08-30T05:02:14;15.00;99.90
22130;DHT22;11231;50.746;4.272;2023-08-30T05:05:06;14.90;99.90
22130;DHT22;11231;50.746;4.272;2023-08-30T05:07:32;14.90;99.90
22130;DHT22;11231;50.746;4.272;2023-08-30T05:09:58;14.80;99.90
22130;DHT22;11231;50.746;4.272;2023-08-30T05:12:24;14.80;99.90
22130;DHT22;11231;50.746;4.272;2023-08-30T05:14:50;14.60;99.90
22130;DHT22;11231;50.746;4.272;2023-08-30T05:17:16;14.60;99.90
22130;DHT22;11231;50.746;4.272;2023-08-30T05:19:42;14.60;99.90
22130;DHT22;11231;50.746;4.272;2023-08-30T05:22:08;14.70;99.90
22130;DHT22;11231;50.746;4.272;2023-08-30T05:24:35;14.60;99.90
22130;DHT22;11231;50.746;4.272;2023-08-30T05:27:02;14.50;99.90
22130;DHT22;11231;50.746;4.272;2023-08-30T05:29:37;14.50;99.90
22130;DHT22;11231;50.746;4.272;2023-08-30T05:32:04;14.40;99.90
22130;DHT22;11231;50.746;4.272;2023-08-30T05:34:53;14.30;99.90
22130;DHT22;11231;50.746;4.272;2023-08-30T05:37:45;14.40;99.90
22130;DHT22;11231;50.746;4.272;2023-08-30T05:40:29;14.50;99.90
22130;DHT22;11231;50.746;4.272;2023-08-30T05:42:55;14.40;99.90
22130;DHT22;11231;50.746;4.272;2023-08-30T05:45:22;14.50;99.90
22130;DHT22;11231;50.746;4.272;2023-08-30T05:47:47;14.50;99.90
22130;DHT22;11231;50.746;4.272;2023-08-30T05:50:13;14.60;99.90
22130;DHT22;11231;50.746;4.272;2023-08-30T05:52:39;14.60;99.90
22130;DHT22;11231;50.746;4.272;2023-08-30T05:55:10;14.70;99.90
22130;DHT22;11231;50.746;4.272;2023-08-30T05:57:37;14.70;99.90
22130;DHT22;11231;50.746;4.272;2023-08-30T06:00:03;14.70;99.90
22130;DHT22;11231;50.746;4.272;2023-08-30T06:02:40;14.80;99.90
22130;DHT22;11231;50.746;4.272;2023-08-30T06:05:06;14.80;99.90
22130;DHT22;11231;50.746;4.272;2023-08-30T06:07:32;14.90;99.90
22130;DHT22;11231;50.746;4.272;2023-08-30T06:09:58;15.00;99.90
22130;DHT22;11231;50.746;4.272;2023-08-30T06:12:24;15.10;99.90
22130;DHT22;11231;50.746;4.272;2023-08-30T06:14:51;15.10;99.90
22130;DHT22;11231;50.746;4.272;2023-08-30T06:17:21;15.10;99.90
22130;DHT22;11231;50.746;4.272;2023-08-30T06:19:46;15.00;99.90
22130;DHT22;11231;50.746;4.272;2023-08-30T06:22:13;15.10;99.90
22130;DHT22;11231;50.746;4.272;2023-08-30T06:24:38;15.10;99.90
22130;DHT22;11231;50.746;4.272;2023-08-30T06:27:04;15.20;99.90
22130;DHT22;11231;50.746;4.272;2023-08-30T06:29:30;15.30;99.90
22130;DHT22;11231;50.746;4.272;2023-08-30T06:31:58;15.40;99.90
22130;DHT22;11231;50.746;4.272;2023-08-30T06:34:23;15.40;99.90
22130;DHT22;11231;50.746;4.272;2023-08-30T06:36:49;15.40;99.90
22130;DHT22;11231;50.746;4.272;2023-08-30T06:39:16;15.40;99.90
22130;DHT22;11231;50.746;4.272;2023-08-30T06:41:42;15.50;99.90
22130;DHT22;11231;50.746;4.272;2023-08-30T06:44:09;15.50;99.90
22130;DHT22;11231;50.746;4.272;2023-08-30T06:46:37;15.60;99.90
22130;DHT22;11231;50.746;4.272;2023-08-30T06:49:03;15.60;99.90
22130;DHT22;11231;50.746;4.272;2023-08-30T06:51:29;15.50;99.90
22130;DHT22;11231;50.746;4.272;2023-08-30T06:53:55;15.50;99.90
22130;DHT22;11231;50.746;4.272;2023-08-30T06:56:28;15.60;99.90
22130;DHT22;11231;50.746;4.272;2023-08-30T06:58:54;15.60;99.90
22130;DHT22;11231;50.746;4.272;2023-08-30T07:01:20;15.40;99.90
22130;DHT22;11231;50.746;4.272;2023-08-30T07:03:45;15.30;99.90
22130;DHT22;11231;50.746;4.272;2023-08-30T07:06:11;15.30;99.90
22130;DHT22;11231;50.746;4.272;2023-08-30T07:08:37;15.30;99.90
22130;DHT22;11231;50.746;4.272;2023-08-30T07:11:03;15.30;99.90
22130;DHT22;11231;50.746;4.272;2023-08-30T07:13:29;15.30;99.90
22130;DHT22;11231;50.746;4.272;2023-08-30T07:15:55;15.40;99.90
22130;DHT22;11231;50.746;4.272;2023-08-30T07:18:21;15.30;99.90
22130;DHT22;11231;50.746;4.272;2023-08-30T07:20:46;15.30;99.90
22130;DHT22;11231;50.746;4.272;2023-08-30T07:23:12;15.30;99.90
22130;DHT22;11231;50.746;4.272;2023-08-30T07:25:38;15.40;99.90
22130;DHT22;11231;50.746;4.272;2023-08-30T07:28:05;15.50;99.90
22130;DHT22;11231;50.746;4.272;2023-08-30T07:30:31;15.60;99.90
22130;DHT22;11231;50.746;4.272;2023-08-30T07:32:56;15.70;99.90
22130;DHT22;11231;50.746;4.272;2023-08-30T07:35:22;15.80;99.90
22130;DHT22;11231;50.746;4.272;2023-08-30T07:37:48;15.80;99.90
22130;DHT22;11231;50.746;4.272;2023-08-30T07:40:14;15.90;99.90
22130;DHT22;11231;50.746;4.272;2023-08-30T07:42:39;15.90;99.90
22130;DHT22;11231;50.746;4.272;2023-08-30T07:45:06;15.90;99.90
22130;DHT22;11231;50.746;4.272;2023-08-30T07:47:32;16.00;99.90
22130;DHT22;11231;50.746;4.272;2023-08-30T07:49:57;16.00;99.90
22130;DHT22;11231;50.746;4.272;2023-08-30T07:52:23;16.10;99.90
22130;DHT22;11231;50.746;4.272;2023-08-30T07:54:49;16.10;99.90
22130;DHT22;11231;50.746;4.272;2023-08-30T07:57:16;16.00;99.90
22130;DHT22;11231;50.746;4.272;2023-08-30T07:59:42;15.90;99.90
22130;DHT22;11231;50.746;4.272;2023-08-30T08:02:08;15.80;99.90
22130;DHT22;11231;50.746;4.272;2023-08-30T08:04:35;15.70;99.90
22130;DHT22;11231;50.746;4.272;2023-08-30T08:07:01;15.80;99.90
22130;DHT22;11231;50.746;4.272;2023-08-30T08:09:28;15.80;99.90
22130;DHT22;11231;50.746;4.272;2023-08-30T08:11:53;15.90;99.90
22130;DHT22;11231;50.746;4.272;2023-08-30T08:14:19;16.00;99.90
22130;DHT22;11231;50.746;4.272;2023-08-30T08:16:46;16.10;99.90
22130;DHT22;11231;50.746;4.272;2023-08-30T08:19:12;16.10;99.90
22130;DHT22;11231;50.746;4.272;2023-08-30T08:21:38;16.20;99.90
22130;DHT22;11231;50.746;4.272;2023-08-30T08:24:04;16.40;99.90
22130;DHT22;11231;50.746;4.272;2023-08-30T08:26:30;16.60;99.90
22130;DHT22;11231;50.746;4.272;2023-08-30T08:28:56;16.70;99.90
22130;DHT22;11231;50.746;4.272;2023-08-30T08:31:23;16.80;99.90
22130;DHT22;11231;50.746;4.272;2023-08-30T08:34:09;16.90;99.90
22130;DHT22;11231;50.746;4.272;2023-08-30T08:36:36;17.00;99.90
22130;DHT22;11231;50.746;4.272;2023-08-30T08:39:02;17.10;99.90
22130;DHT22;11231;50.746;4.272;2023-08-30T08:41:35;17.20;99.90
22130;DHT22;11231;50.746;4.272;2023-08-30T08:44:04;17.40;99.90
22130;DHT22;11231;50.746;4.272;2023-08-30T08:46:31;17.40;99.90
22130;DHT22;11231;50.746;4.272;2023-08-30T08:48:58;17.40;99.90
22130;DHT22;11231;50.746;4.272;2023-08-30T08:51:27;17.50;99.90
22130;DHT22;11231;50.746;4.272;2023-08-30T08:53:58;17.50;99.90
22130;DHT22;11231;50.746;4.272;2023-08-30T08:56:26;17.50;99.90
22130;DHT22;11231;50.746;4.272;2023-08-30T08:58:52;17.60;99.90
22130;DHT22;11231;50.746;4.272;2023-08-30T09:01:18;17.70;99.90
22130;DHT22;11231;50.746;4.272;2023-08-30T09:03:45;17.80;99.90
22130;DHT22;11231;50.746;4.272;2023-08-30T09:06:11;18.10;99.90
22130;DHT22;11231;50.746;4.272;2023-08-30T09:08:38;18.40;99.90
22130;DHT22;11231;50.746;4.272;2023-08-30T09:11:03;18.70;99.90
22130;DHT22;11231;50.746;4.272;2023-08-30T09:13:32;18.70;99.90
22130;DHT22;11231;50.746;4.272;2023-08-30T09:15:57;18.80;99.90
22130;DHT22;11231;50.746;4.272;2023-08-30T09:18:24;18.90;99.90
22130;DHT22;11231;50.746;4.272;2023-08-30T09:21:06;19.00;99.90
22130;DHT22;11231;50.746;4.272;2023-08-30T09:23:32;18.90;99.90
22130;DHT22;11231;50.746;4.272;2023-08-30T09:25:59;18.80;99.90
22130;DHT22;11231;50.746;4.272;2023-08-30T09:28:26;18.80;99.90
22130;DHT22;11231;50.746;4.272;2023-08-30T09:30:54;18.80;99.90
22130;DHT22;11231;50.746;4.272;2023-08-30T09:33:29;18.70;99.90
22130;DHT22;11231;50.746;4.272;2023-08-30T09:35:55;19.00;99.90
22130;DHT22;11231;50.746;4.272;2023-08-30T09:38:20;19.40;99.90
22130;DHT22;11231;50.746;4.272;2023-08-30T09:40:47;19.70;99.90
22130;DHT22;11231;50.746;4.272;2023-08-30T09:43:13;19.90;99.90
22130;DHT22;11231;50.746;4.272;2023-08-30T09:45:40;19.70;99.90
22130;DHT22;11231;50.746;4.272;2023-08-30T09:48:07;19.70;99.90
22130;DHT22;11231;50.746;4.272;2023-08-30T09:50:34;19.80;99.90
22130;DHT22;11231;50.746;4.272;2023-08-30T09:53:07;19.90;99.90
22130;DHT22;11231;50.746;4.272;2023-08-30T09:55:34;19.90;99.90
22130;DHT22;11231;50.746;4.272;2023-08-30T09:58:02;19.60;99.90
22130;DHT22;11231;50.746;4.272;2023-08-30T10:00:30;19.50;99.90
22130;DHT22;11231;50.746;4.272;2023-08-30T10:02:58;19.50;99.90
22130;DHT22;11231;50.746;4.272;2023-08-30T10:05:25;19.60;99.90
22130;DHT22;11231;50.746;4.272;2023-08-30T10:07:52;19.50;99.90
22130;DHT22;11231;50.746;4.272;2023-08-30T10:10:20;19.40;99.90
22130;DHT22;11231;50.746;4.272;2023-08-30T10:12:46;19.10;99.90
22130;DHT22;11231;50.746;4.272;2023-08-30T10:15:12;18.90;99.90
22130;DHT22;11231;50.746;4.272;2023-08-30T10:17:45;18.80;99.90
22130;DHT22;11231;50.746;4.272;2023-08-30T10:20:11;18.90;99.90
22130;DHT22;11231;50.746;4.272;2023-08-30T10:22:38;19.10;99.90
22130;DHT22;11231;50.746;4.272;2023-08-30T10:25:20;19.10;99.90
22130;DHT22;11231;50.746;4.272;2023-08-30T10:27:49;19.20;99.90
22130;DHT22;11231;50.746;4.272;2023-08-30T10:30:16;19.40;99.90
22130;DHT22;11231;50.746;4.272;2023-08-30T10:32:44;19.60;99.90
22130;DHT22;11231;50.746;4.272;2023-08-30T10:35:12;19.90;99.90
22130;DHT22;11231;50.746;4.272;2023-08-30T10:37:41;20.20;99.90
22130;DHT22;11231;50.746;4.272;2023-08-30T10:40:08;20.70;99.90
22130;DHT22;11231;50.746;4.272;2023-08-30T10:42:35;20.90;99.90
22130;DHT22;11231;50.746;4.272;2023-08-30T10:47:27;21.20;99.90
22130;DHT22;11231;50.746;4.272;2023-08-30T10:50:00;21.30;99.90
22130;DHT22;11231;50.746;4.272;2023-08-30T10:52:27;21.40;99.90
22130;DHT22;11231;50.746;4.272;2023-08-30T10:55:11;21.70;99.90
22130;DHT22;11231;50.746;4.272;2023-08-30T10:57:38;22.10;99.90
22130;DHT22;11231;50.746;4.272;2023-08-30T11:00:18;22.10;99.90
22130;DHT22;11231;50.746;4.272;2023-08-30T11:02:45;21.90;99.90
22130;DHT22;11231;50.746;4.272;2023-08-30T11:05:11;21.70;99.90
22130;DHT22;11231;50.746;4.272;2023-08-30T11:07:37;21.70;99.90
22130;DHT22;11231;50.746;4.272;2023-08-30T11:10:06;21.60;99.90
22130;DHT22;11231;50.746;4.272;2023-08-30T11:12:33;21.70;99.90
22130;DHT22;11231;50.746;4.272;2023-08-30T11:14:59;21.80;99.90
22130;DHT22;11231;50.746;4.272;2023-08-30T11:17:27;21.80;99.90
22130;DHT22;11231;50.746;4.272;2023-08-30T11:20:10;22.00;99.90
22130;DHT22;11231;50.746;4.272;2023-08-30T11:22:46;22.30;99.90
22130;DHT22;11231;50.746;4.272;2023-08-30T11:25:14;22.60;99.90
22130;DHT22;11231;50.746;4.272;2023-08-30T11:27:41;23.50;99.90
22130;DHT22;11231;50.746;4.272;2023-08-30T11:30:08;22.60;99.90
22130;DHT22;11231;50.746;4.272;2023-08-30T11:32:35;22.50;99.90
22130;DHT22;11231;50.746;4.272;2023-08-30T11:35:02;22.00;99.90
22130;DHT22;11231;50.746;4.272;2023-08-30T11:37:28;22.00;99.90
22130;DHT22;11231;50.746;4.272;2023-08-30T11:39:58;22.30;99.90
22130;DHT22;11231;50.746;4.272;2023-08-30T11:42:25;22.60;99.90
22130;DHT22;11231;50.746;4.272;2023-08-30T11:44:51;22.80;99.90
22130;DHT22;11231;50.746;4.272;2023-08-30T11:47:23;22.60;99.90
22130;DHT22;11231;50.746;4.272;2023-08-30T11:49:52;22.70;99.90
22130;DHT22;11231;50.746;4.272;2023-08-30T11:52:19;24.40;99.90
22130;DHT22;11231;50.746;4.272;2023-08-30T11:54:47;25.10;99.90
22130;DHT22;11231;50.746;4.272;2023-08-30T11:57:13;24.80;99.90
22130;DHT22;11231;50.746;4.272;2023-08-30T11:59:39;24.60;99.90
22130;DHT22;11231;50.746;4.272;2023-08-30T12:02:09;24.80;99.90
22130;DHT22;11231;50.746;4.272;2023-08-30T12:04:47;24.70;99.90
22130;DHT22;11231;50.746;4.272;2023-08-30T12:07:26;24.60;99.90
22130;DHT22;11231;50.746;4.272;2023-08-30T12:09:52;24.40;99.90
22130;DHT22;11231;50.746;4.272;2023-08-30T12:12:18;24.30;99.90
22130;DHT22;11231;50.746;4.272;2023-08-30T12:14:44;23.90;99.90
22130;DHT22;11231;50.746;4.272;2023-08-30T12:17:10;24.00;99.90
22130;DHT22;11231;50.746;4.272;2023-08-30T12:19:38;23.90;99.90
22130;DHT22;11231;50.746;4.272;2023-08-30T12:22:06;23.80;99.90
22130;DHT22;11231;50.746;4.272;2023-08-30T12:24:45;23.60;99.90
22130;DHT22;11231;50.746;4.272;2023-08-30T12:27:14;23.50;99.90
22130;DHT22;11231;50.746;4.272;2023-08-30T12:29:40;23.30;99.90
22130;DHT22;11231;50.746;4.272;2023-08-30T12:32:07;23.40;99.90
22130;DHT22;11231;50.746;4.272;2023-08-30T12:34:33;23.90;99.90
22130;DHT22;11231;50.746;4.272;2023-08-30T12:36:59;23.90;99.90
22130;DHT22;11231;50.746;4.272;2023-08-30T12:39:25;23.60;99.90
22130;DHT22;11231;50.746;4.272;2023-08-30T12:41:51;23.40;99.90
22130;DHT22;11231;50.746;4.272;2023-08-30T12:44:17;23.00;99.90
22130;DHT22;11231;50.746;4.272;2023-08-30T12:46:42;22.80;99.90
22130;DHT22;11231;50.746;4.272;2023-08-30T12:49:08;22.70;99.90
22130;DHT22;11231;50.746;4.272;2023-08-30T12:51:34;23.00;99.90
22130;DHT22;11231;50.746;4.272;2023-08-30T12:54:00;23.40;99.90
22130;DHT22;11231;50.746;4.272;2023-08-30T12:56:25;23.20;99.90
22130;DHT22;11231;50.746;4.272;2023-08-30T12:58:52;23.30;99.90
22130;DHT22;11231;50.746;4.272;2023-08-30T13:01:18;22.80;99.90
22130;DHT22;11231;50.746;4.272;2023-08-30T13:03:44;22.60;99.90
22130;DHT22;11231;50.746;4.272;2023-08-30T13:06:10;22.50;99.90
22130;DHT22;11231;50.746;4.272;2023-08-30T13:08:35;22.30;99.90
22130;DHT22;11231;50.746;4.272;2023-08-30T13:11:01;22.20;99.90
22130;DHT22;11231;50.746;4.272;2023-08-30T13:13:27;22.20;99.90
22130;DHT22;11231;50.746;4.272;2023-08-30T13:15:53;22.40;99.90
22130;DHT22;11231;50.746;4.272;2023-08-30T13:18:20;22.40;99.90
22130;DHT22;11231;50.746;4.272;2023-08-30T13:20:47;22.50;99.90
22130;DHT22;11231;50.746;4.272;2023-08-30T13:23:12;22.50;99.90
22130;DHT22;11231;50.746;4.272;2023-08-30T13:25:39;22.40;99.90
22130;DHT22;11231;50.746;4.272;2023-08-30T13:28:05;22.50;99.90
22130;DHT22;11231;50.746;4.272;2023-08-30T13:30:33;22.90;99.90
22130;DHT22;11231;50.746;4.272;2023-08-30T13:32:59;23.10;99.90
22130;DHT22;11231;50.746;4.272;2023-08-30T13:35:25;23.10;99.90
22130;DHT22;11231;50.746;4.272;2023-08-30T13:37:51;23.00;99.90
22130;DHT22;11231;50.746;4.272;2023-08-30T13:40:17;22.60;99.90
22130;DHT22;11231;50.746;4.272;2023-08-30T13:42:43;22.30;99.90
22130;DHT22;11231;50.746;4.272;2023-08-30T13:45:09;22.20;99.90
22130;DHT22;11231;50.746;4.272;2023-08-30T13:47:40;22.00;99.90
22130;DHT22;11231;50.746;4.272;2023-08-30T13:50:06;22.00;99.90
22130;DHT22;11231;50.746;4.272;2023-08-30T13:52:32;22.00;99.90
22130;DHT22;11231;50.746;4.272;2023-08-30T13:54:58;22.20;99.90
22130;DHT22;11231;50.746;4.272;2023-08-30T13:57:24;22.30;99.90
22130;DHT22;11231;50.746;4.272;2023-08-30T13:59:50;22.30;99.90
22130;DHT22;11231;50.746;4.272;2023-08-30T14:02:16;22.40;99.90
22130;DHT22;11231;50.746;4.272;2023-08-30T14:04:42;22.10;99.90
22130;DHT22;11231;50.746;4.272;2023-08-30T14:07:08;21.60;99.90
22130;DHT22;11231;50.746;4.272;2023-08-30T14:09:34;21.50;99.90
22130;DHT22;11231;50.746;4.272;2023-08-30T14:12:00;21.60;99.90
22130;DHT22;11231;50.746;4.272;2023-08-30T14:14:26;21.60;99.90
22130;DHT22;11231;50.746;4.272;2023-08-30T14:16:52;21.80;99.90
22130;DHT22;11231;50.746;4.272;2023-08-30T14:19:18;21.90;99.90
22130;DHT22;11231;50.746;4.272;2023-08-30T14:21:44;21.70;99.90
22130;DHT22;11231;50.746;4.272;2023-08-30T14:24:10;21.70;99.90
22130;DHT22;11231;50.746;4.272;2023-08-30T14:26:36;21.70;99.90
22130;DHT22;11231;50.746;4.272;2023-08-30T14:29:01;21.50;99.90
22130;DHT22;11231;50.746;4.272;2023-08-30T14:31:27;21.40;99.90
22130;DHT22;11231;50.746;4.272;2023-08-30T14:33:56;21.30;99.90
22130;DHT22;11231;50.746;4.272;2023-08-30T14:36:24;21.20;99.90
22130;DHT22;11231;50.746;4.272;2023-08-30T14:38:50;21.20;99.90
22130;DHT22;11231;50.746;4.272;2023-08-30T14:41:16;21.30;99.90
22130;DHT22;11231;50.746;4.272;2023-08-30T14:43:43;21.40;99.90
22130;DHT22;11231;50.746;4.272;2023-08-30T14:46:09;21.30;99.90
22130;DHT22;11231;50.746;4.272;2023-08-30T14:48:35;21.50;99.90
22130;DHT22;11231;50.746;4.272;2023-08-30T14:51:01;21.50;99.90
22130;DHT22;11231;50.746;4.272;2023-08-30T14:53:27;21.40;99.90
22130;DHT22;11231;50.746;4.272;2023-08-30T14:55:53;21.70;99.90
22130;DHT22;11231;50.746;4.272;2023-08-30T14:58:21;21.70;99.90
22130;DHT22;11231;50.746;4.272;2023-08-30T15:00:48;21.60;99.90
22130;DHT22;11231;50.746;4.272;2023-08-30T15:03:14;21.80;99.90
22130;DHT22;11231;50.746;4.272;2023-08-30T15:05:40;21.80;99.90
22130;DHT22;11231;50.746;4.272;2023-08-30T15:08:06;21.90;99.90
22130;DHT22;11231;50.746;4.272;2023-08-30T15:10:32;21.80;99.90
22130;DHT22;11231;50.746;4.272;2023-08-30T15:12:58;21.50;99.90
22130;DHT22;11231;50.746;4.272;2023-08-30T15:15:24;21.30;99.90
22130;DHT22;11231;50.746;4.272;2023-08-30T15:17:50;21.00;99.90
22130;DHT22;11231;50.746;4.272;2023-08-30T15:20:17;21.00;99.90
22130;DHT22;11231;50.746;4.272;2023-08-30T15:22:43;21.00;99.90
22130;DHT22;11231;50.746;4.272;2023-08-30T15:25:09;21.00;99.90
22130;DHT22;11231;50.746;4.272;2023-08-30T15:27:35;21.10;99.90
22130;DHT22;11231;50.746;4.272;2023-08-30T15:30:03;21.20;99.90
22130;DHT22;11231;50.746;4.272;2023-08-30T15:32:29;21.40;99.90
22130;DHT22;11231;50.746;4.272;2023-08-30T15:34:57;21.60;99.90
22130;DHT22;11231;50.746;4.272;2023-08-30T15:37:23;21.40;99.90